createdAt,value
2023-01-17T00:01:34.154Z,97129.86
2023-01-17T00:04:22.883Z,97127.14
2023-01-17T00:07:11.190Z,97121.73
2023-01-17T00:09:54.079Z,97117.04
2023-01-17T00:12:26.575Z,97112.06
2023-01-17T00:14:58.979Z,97106.16
2023-01-17T00:17:31.782Z,97103.90
2023-01-17T00:20:20.373Z,97108.02
2023-01-17T00:23:08.678Z,97109.30
2023-01-17T00:25:58.458Z,97107.04
2023-01-17T00:28:28.950Z,97108.63
2023-01-17T00:30:58.530Z,97114.95
2023-01-17T00:33:28.394Z,97112.86
2023-01-17T00:35:59.563Z,97111.91
2023-01-17T00:38:30.784Z,97111.10
2023-01-17T00:41:05.685Z,97110.65
2023-01-17T00:43:54.583Z,97106.33
2023-01-17T00:46:43.481Z,97108.13
2023-01-17T00:49:32.254Z,97103.08
2023-01-17T00:52:21.072Z,97103.05
2023-01-17T00:55:09.355Z,97107.48
2023-01-17T00:57:57.975Z,97112.20
2023-01-17T01:00:46.621Z,97110.55
2023-01-17T01:03:35.540Z,97113.25
2023-01-17T01:06:26.696Z,97111.48
2023-01-17T01:09:14.825Z,97114.24
2023-01-17T01:12:03.232Z,97117.54
2023-01-17T01:14:51.585Z,97121.55
2023-01-17T01:17:39.708Z,97120.92
2023-01-17T01:20:29.985Z,97124.23
2023-01-17T01:23:21.953Z,97122.52
2023-01-17T01:26:10.189Z,97119.08
2023-01-17T01:28:58.678Z,97120.75
2023-01-17T01:31:47.250Z,97118.72
2023-01-17T01:34:18.060Z,97121.16
2023-01-17T01:36:48.733Z,97121.86
2023-01-17T01:39:19.429Z,97121.04
2023-01-17T01:41:50.107Z,97118.15
2023-01-17T01:44:44.521Z,97120.29
2023-01-17T01:47:21.061Z,97121.08
2023-01-17T01:49:52.476Z,97119.13
2023-01-17T01:52:26.611Z,97119.56
2023-01-17T01:55:01.221Z,97107.33
2023-01-17T01:57:36.414Z,97107.70
2023-01-17T02:00:17.533Z,97103.40
2023-01-17T02:02:50.899Z,97107.55
2023-01-17T02:05:24.629Z,97106.14
2023-01-17T02:08:00.043Z,97107.08
2023-01-17T02:10:32.228Z,97110.30
2023-01-17T02:13:03.765Z,97110.69
2023-01-17T02:15:42.247Z,97113.59
2023-01-17T02:18:23.521Z,97114.55
2023-01-17T02:21:16.149Z,97118.46
2023-01-17T02:24:41.101Z,97115.55
2023-01-17T02:27:18.333Z,97114.36
2023-01-17T02:30:32.976Z,97115.87
2023-01-17T02:33:15.694Z,97114.90
2023-01-17T02:35:55.612Z,97114.39
2023-01-17T02:38:39.269Z,97118.50
2023-01-17T02:41:17.644Z,97117.89
2023-01-17T02:43:50.855Z,97116.54
2023-01-17T02:46:21.847Z,97118.00
2023-01-17T02:48:53.392Z,97117.60
2023-01-17T02:51:46.330Z,97123.83
2023-01-17T02:54:33.049Z,97131.27
2023-01-17T02:57:22.631Z,97129.00
2023-01-17T03:00:01.408Z,97131.33
2023-01-17T03:02:39.600Z,97140.03
2023-01-17T03:05:15.386Z,97136.46
2023-01-17T03:07:48.258Z,97147.13
2023-01-17T03:10:19.166Z,97152.64
2023-01-17T03:12:49.987Z,97155.57
2023-01-17T03:15:20.609Z,97155.08
2023-01-17T03:17:54.506Z,97160.09
2023-01-17T03:20:25.502Z,97164.39
2023-01-17T03:22:56.317Z,97166.33
2023-01-17T03:25:27.418Z,97170.20
2023-01-17T03:27:58.744Z,97177.11
2023-01-17T03:30:29.904Z,97180.83
2023-01-17T03:33:00.665Z,97177.73
2023-01-17T03:35:31.473Z,97184.62
2023-01-17T03:38:02.147Z,97187.36
2023-01-17T03:40:33.251Z,97187.20
2023-01-17T03:43:03.949Z,97192.27
2023-01-17T03:45:34.673Z,97190.56
2023-01-17T03:48:06.311Z,97196.50
2023-01-17T03:50:37.250Z,97199.06
2023-01-17T03:53:08.128Z,97198.74
2023-01-17T03:55:38.753Z,97204.85
2023-01-17T03:58:09.822Z,97203.77
2023-01-17T04:00:40.839Z,97208.80
2023-01-17T04:03:11.687Z,97210.33
2023-01-17T04:05:42.447Z,97212.91
2023-01-17T04:08:16.102Z,97210.98
2023-01-17T04:10:47.144Z,97215.17
2023-01-17T04:13:18.121Z,97221.66
2023-01-17T04:15:52.169Z,97226.40
2023-01-17T04:18:25.007Z,97230.05
2023-01-17T04:20:55.699Z,97228.54
2023-01-17T04:23:26.461Z,97227.41
2023-01-17T04:25:57.207Z,97233.89
2023-01-17T04:28:27.914Z,97234.98
2023-01-17T04:31:01.769Z,97237.58
2023-01-17T04:33:32.512Z,97246.89
2023-01-17T04:36:03.235Z,97246.17
2023-01-17T04:38:35.165Z,97252.90
2023-01-17T04:41:06.012Z,97252.96
2023-01-17T04:43:36.889Z,97256.27
2023-01-17T04:46:10.117Z,97266.68
2023-01-17T04:48:40.870Z,97279.60
2023-01-17T04:51:11.603Z,97287.01
2023-01-17T04:53:42.474Z,97291.50
2023-01-17T04:56:13.228Z,97294.96
2023-01-17T04:58:43.866Z,97301.05
2023-01-17T05:01:14.857Z,97301.97
2023-01-17T05:03:45.668Z,97304.00
2023-01-17T05:06:16.485Z,97305.05
2023-01-17T05:08:47.347Z,97307.52
2023-01-17T05:11:19.252Z,97311.17
2023-01-17T05:13:52.114Z,97310.58
2023-01-17T05:16:22.851Z,97313.09
2023-01-17T05:18:54.945Z,97320.54
2023-01-17T05:21:25.938Z,97320.38
2023-01-17T05:23:56.744Z,97322.30
2023-01-17T05:26:27.531Z,97324.23
2023-01-17T05:28:58.206Z,97321.95
2023-01-17T05:31:28.997Z,97324.14
2023-01-17T05:33:59.556Z,97328.73
2023-01-17T05:36:30.307Z,97326.39
2023-01-17T05:39:01.088Z,97325.33
2023-01-17T05:41:31.819Z,97330.88
2023-01-17T05:44:02.569Z,97331.69
2023-01-17T05:46:33.428Z,97337.37
2023-01-17T05:49:04.285Z,97340.05
2023-01-17T05:51:37.802Z,97339.38
2023-01-17T05:54:08.936Z,97341.72
2023-01-17T05:56:39.637Z,97342.95
2023-01-17T05:59:12.065Z,97349.09
2023-01-17T06:01:44.810Z,97342.48
2023-01-17T06:04:15.591Z,97352.85
2023-01-17T06:06:46.446Z,97355.27
2023-01-17T06:09:17.517Z,97365.06
2023-01-17T06:11:48.330Z,97364.23
2023-01-17T06:14:19.092Z,97367.46
2023-01-17T06:16:49.904Z,97366.40
2023-01-17T06:19:20.574Z,97369.04
2023-01-17T06:21:51.329Z,97373.95
2023-01-17T06:24:22.129Z,97374.01
2023-01-17T06:26:53.257Z,97378.73
2023-01-17T06:29:24.149Z,97376.05
2023-01-17T06:31:54.900Z,97375.81
2023-01-17T06:34:25.960Z,97380.73
2023-01-17T06:36:56.818Z,97385.07
2023-01-17T06:39:27.543Z,97379.86
2023-01-17T06:41:58.420Z,97386.61
2023-01-17T06:44:29.205Z,97391.58
2023-01-17T06:46:59.950Z,97393.42
2023-01-17T06:49:30.533Z,97393.62
2023-01-17T06:52:01.331Z,97398.36
2023-01-17T06:54:31.940Z,97400.76
2023-01-17T06:57:02.656Z,97406.19
2023-01-17T06:59:33.279Z,97414.43
2023-01-17T07:02:04.041Z,97416.25
2023-01-17T07:04:35.450Z,97423.83
2023-01-17T07:07:06.123Z,97430.44
2023-01-17T07:09:36.728Z,97432.09
2023-01-17T07:12:08.861Z,97434.59
2023-01-17T07:14:39.599Z,97443.80
2023-01-17T07:17:10.447Z,97442.13
2023-01-17T07:19:41.203Z,97447.26
2023-01-17T07:22:13.350Z,97448.39
2023-01-17T07:24:44.329Z,97453.31
2023-01-17T07:27:15.087Z,97452.67
2023-01-17T07:29:45.718Z,97449.45
2023-01-17T07:32:16.443Z,97448.16
2023-01-17T07:34:47.173Z,97449.27
2023-01-17T07:37:19.979Z,97447.45
2023-01-17T07:39:50.945Z,97445.56
2023-01-17T07:42:23.822Z,97448.22
2023-01-17T07:44:54.933Z,97445.07
2023-01-17T07:47:25.726Z,97444.74
2023-01-17T07:49:56.324Z,97447.70
2023-01-17T07:52:26.986Z,97447.19
2023-01-17T07:54:57.624Z,97453.44
2023-01-17T07:57:28.391Z,97457.84
2023-01-17T07:59:59.053Z,97466.34
2023-01-17T08:02:29.750Z,97477.50
2023-01-17T08:05:00.350Z,97476.48
2023-01-17T08:07:31.061Z,97477.85
2023-01-17T08:10:01.774Z,97475.23
2023-01-17T08:12:32.626Z,97479.50
2023-01-17T08:15:03.435Z,97476.48
2023-01-17T08:17:34.444Z,97480.55
2023-01-17T08:20:06.170Z,97485.48
2023-01-17T08:22:36.840Z,97484.59
2023-01-17T08:25:08.832Z,97487.63
2023-01-17T08:27:39.872Z,97495.22
2023-01-17T08:30:12.953Z,97498.66
2023-01-17T08:32:43.737Z,97505.33
2023-01-17T08:35:14.396Z,97510.22
2023-01-17T08:37:45.104Z,97509.90
2023-01-17T08:40:17.843Z,97511.12
2023-01-17T08:42:57.186Z,97506.03
2023-01-17T08:45:29.202Z,97508.46
2023-01-17T08:48:01.275Z,97517.14
2023-01-17T08:50:32.105Z,97518.42
2023-01-17T08:53:02.812Z,97524.83
2023-01-17T08:55:37.827Z,97529.52
2023-01-17T08:58:08.636Z,97533.02
2023-01-17T09:00:39.810Z,97543.76
2023-01-17T09:03:14.330Z,97544.20
2023-01-17T09:05:44.914Z,97547.34
2023-01-17T09:08:15.657Z,97549.60
2023-01-17T09:10:46.623Z,97553.12
2023-01-17T09:13:17.406Z,97555.61
2023-01-17T09:15:48.054Z,97557.30
2023-01-17T09:18:18.677Z,97569.08
2023-01-17T09:20:49.311Z,97579.41
2023-01-17T09:23:20.033Z,97577.92
2023-01-17T09:25:56.319Z,97583.07
2023-01-17T09:28:28.059Z,97579.33
2023-01-17T09:30:58.789Z,97577.55
2023-01-17T09:33:29.732Z,97577.84
2023-01-17T09:36:04.232Z,97576.45
2023-01-17T09:38:35.115Z,97582.27
2023-01-17T09:41:19.342Z,97585.16
2023-01-17T09:43:53.377Z,97585.05
2023-01-17T09:46:29.789Z,97590.10
2023-01-17T09:49:08.459Z,97587.75
2023-01-17T09:51:39.764Z,97591.84
2023-01-17T09:54:21.495Z,97586.70
2023-01-17T09:57:01.874Z,97592.64
2023-01-17T09:59:45.656Z,97593.85
2023-01-17T10:02:42.718Z,97598.35
2023-01-17T10:05:34.377Z,97598.52
2023-01-17T10:08:17.836Z,97605.56
2023-01-17T10:11:03.092Z,97605.52
2023-01-17T10:13:47.004Z,97610.88
2023-01-17T10:16:32.824Z,97612.09
2023-01-17T10:19:17.290Z,97606.97
2023-01-17T10:22:04.264Z,97605.91
2023-01-17T10:24:54.465Z,97602.92
2023-01-17T10:27:30.331Z,97601.17
2023-01-17T10:30:02.398Z,97604.98
2023-01-17T10:32:36.383Z,97605.49
2023-01-17T10:35:21.512Z,97608.45
2023-01-17T10:37:56.752Z,97612.10
2023-01-17T10:40:36.502Z,97614.98
2023-01-17T10:43:14.508Z,97617.48
2023-01-17T10:45:53.075Z,97622.63
2023-01-17T10:48:35.796Z,97618.33
2023-01-17T10:51:15.964Z,97623.16
2023-01-17T10:54:05.074Z,97635.12
2023-01-17T10:56:39.062Z,97635.57
2023-01-17T10:59:19.966Z,97639.64
2023-01-17T11:01:51.393Z,97638.20
2023-01-17T11:04:27.259Z,97634.81
2023-01-17T11:09:57.477Z,97644.01
2023-01-17T11:12:31.797Z,97643.23
2023-01-17T11:15:07.394Z,97645.34
2023-01-17T11:17:39.936Z,97638.57
2023-01-17T11:20:21.004Z,97637.37
2023-01-17T11:23:06.370Z,97631.47
2023-01-17T11:25:37.421Z,97629.66
2023-01-17T11:28:22.148Z,97622.02
2023-01-17T11:30:58.626Z,97626.31
2023-01-17T11:33:45.085Z,97626.58
2023-01-17T11:36:25.003Z,97627.98
2023-01-17T11:39:02.878Z,97625.58
2023-01-17T11:41:38.092Z,97626.71
2023-01-17T11:44:25.882Z,97624.39
2023-01-17T11:47:19.080Z,97625.31
2023-01-17T11:49:50.828Z,97625.88
2023-01-17T11:52:28.468Z,97625.66
2023-01-17T11:55:00.125Z,97625.70
2023-01-17T11:57:33.368Z,97622.40
2023-01-17T12:00:20.579Z,97623.89
2023-01-17T12:03:16.124Z,97625.98
2023-01-17T12:05:57.965Z,97625.63
2023-01-17T12:08:53.213Z,97625.86
2023-01-17T12:11:29.961Z,97623.27
2023-01-17T12:14:13.014Z,97627.15
2023-01-17T12:16:55.617Z,97630.23
2023-01-17T12:19:54.818Z,97627.95
2023-01-17T12:22:37.154Z,97625.79
2023-01-17T12:25:23.607Z,97628.67
2023-01-17T12:28:08.782Z,97631.05
2023-01-17T12:30:54.122Z,97635.64
2023-01-17T12:33:33.831Z,97631.59
2023-01-17T12:36:17.759Z,97622.99
2023-01-17T12:38:50.036Z,97622.97
2023-01-17T12:41:26.488Z,97626.98
2023-01-17T12:44:00.793Z,97623.06
2023-01-17T12:46:38.635Z,97624.87
2023-01-17T12:49:24.115Z,97625.64
2023-01-17T12:52:00.356Z,97624.30
2023-01-17T12:54:38.004Z,97627.56
2023-01-17T12:57:16.473Z,97624.50
2023-01-17T12:59:53.445Z,97624.94
2023-01-17T13:02:33.595Z,97622.24
2023-01-17T13:05:08.700Z,97623.85
2023-01-17T13:07:48.685Z,97628.71
2023-01-17T13:10:26.429Z,97632.91
2023-01-17T13:13:01.550Z,97633.79
2023-01-17T13:15:38.995Z,97638.00
2023-01-17T13:18:15.622Z,97642.47
2023-01-17T13:21:08.686Z,97646.52
2023-01-17T13:23:59.005Z,97650.89
2023-01-17T13:26:41.506Z,97652.54
2023-01-17T13:29:22.108Z,97658.04
2023-01-17T13:31:59.261Z,97660.39
2023-01-17T13:34:52.895Z,97662.69
2023-01-17T13:37:42.558Z,97666.31
2023-01-17T13:40:34.153Z,97663.59
2023-01-17T13:43:06.289Z,97669.50
2023-01-17T13:45:39.162Z,97674.18
2023-01-17T13:48:26.843Z,97676.13
2023-01-17T13:50:58.669Z,97676.24
2023-01-17T13:54:00.928Z,97679.92
2023-01-17T13:56:38.485Z,97678.58
2023-01-17T13:59:30.637Z,97681.36
2023-01-17T14:02:01.657Z,97684.33
2023-01-17T14:05:06.104Z,97685.45
2023-01-17T14:07:41.909Z,97688.54
2023-01-17T14:10:33.852Z,97694.83
2023-01-17T14:13:07.254Z,97693.88
2023-01-17T14:15:50.932Z,97691.07
2023-01-17T14:18:35.033Z,97689.16
2023-01-17T14:21:14.734Z,97697.01
2023-01-17T14:24:06.288Z,97701.02
2023-01-17T14:26:43.172Z,97696.63
2023-01-17T14:30:00.487Z,97694.33
2023-01-17T14:32:34.482Z,97686.46
2023-01-17T14:35:06.513Z,97682.61
2023-01-17T14:37:50.679Z,97680.13
2023-01-17T14:40:26.377Z,97684.05
2023-01-17T14:43:03.744Z,97688.20
2023-01-17T14:45:36.946Z,97686.91
2023-01-17T14:48:20.115Z,97694.40
2023-01-17T14:50:52.407Z,97701.57
2023-01-17T14:53:26.021Z,97701.85
2023-01-17T14:55:59.462Z,97702.66
2023-01-17T14:58:32.388Z,97699.69
2023-01-17T15:01:03.182Z,97698.39
2023-01-17T15:03:42.986Z,97698.17
2023-01-17T15:06:21.869Z,97706.92
2023-01-17T15:08:53.954Z,97712.25
2023-01-17T15:11:27.099Z,97716.63
2023-01-17T15:14:00.357Z,97716.49
2023-01-17T15:16:34.457Z,97716.86
2023-01-17T15:19:11.277Z,97715.80
2023-01-17T15:21:44.461Z,97723.39
2023-01-17T15:24:20.629Z,97727.30
2023-01-17T15:26:52.014Z,97725.02
2023-01-17T15:29:27.703Z,97718.75
2023-01-17T15:32:00.330Z,97720.66
2023-01-17T15:34:33.662Z,97723.43
2023-01-17T15:37:08.875Z,97725.56
2023-01-17T15:39:42.145Z,97725.95
2023-01-17T15:42:23.929Z,97724.80
2023-01-17T15:44:58.458Z,97730.39
2023-01-17T15:47:32.932Z,97729.31
2023-01-17T15:50:30.150Z,97728.67
2023-01-17T15:53:02.990Z,97732.83
2023-01-17T15:55:36.977Z,97736.84
2023-01-17T15:58:23.916Z,97741.20
2023-01-17T16:00:54.827Z,97748.13
2023-01-17T16:03:29.349Z,97749.39
2023-01-17T16:06:03.006Z,97741.11
2023-01-17T16:08:39.527Z,97732.20
2023-01-17T16:11:15.116Z,97732.39
2023-01-17T16:13:47.356Z,97730.43
2023-01-17T16:16:24.230Z,97734.01
2023-01-17T16:19:01.258Z,97734.95
2023-01-17T16:21:33.643Z,97733.64
2023-01-17T16:24:06.831Z,97739.89
2023-01-17T16:26:37.502Z,97734.74
2023-01-17T16:29:08.457Z,97741.70
2023-01-17T16:31:39.072Z,97730.86
2023-01-17T16:34:13.597Z,97734.20
2023-01-17T16:36:44.333Z,97738.13
2023-01-17T16:39:16.775Z,97742.55
2023-01-17T16:41:47.774Z,97739.42
2023-01-17T16:44:18.651Z,97740.71
2023-01-17T16:46:49.372Z,97736.03
2023-01-17T16:49:20.241Z,97736.32
2023-01-17T16:51:51.741Z,97741.67
2023-01-17T16:54:22.436Z,97737.73
2023-01-17T16:56:53.349Z,97728.92
2023-01-17T16:59:24.121Z,97715.02
2023-01-17T17:01:54.849Z,97716.75
2023-01-17T17:04:25.624Z,97719.27
2023-01-17T17:06:56.519Z,97720.30
2023-01-17T17:09:27.449Z,97718.45
2023-01-17T17:11:58.362Z,97716.28
2023-01-17T17:14:29.397Z,97724.38
2023-01-17T17:17:03.156Z,97722.59
2023-01-17T17:19:34.462Z,97722.10
2023-01-17T17:22:06.645Z,97720.73
2023-01-17T17:24:37.483Z,97723.52
2023-01-17T17:27:08.129Z,97720.84
2023-01-17T17:29:38.851Z,97716.16
2023-01-17T17:32:11.567Z,97716.29
2023-01-17T17:34:42.199Z,97718.64
2023-01-17T17:37:13.564Z,97721.77
2023-01-17T17:39:44.512Z,97729.13
2023-01-17T17:42:15.538Z,97734.08
2023-01-17T17:44:46.282Z,97740.02
2023-01-17T17:47:17.853Z,97742.09
2023-01-17T17:49:48.571Z,97742.59
2023-01-17T17:52:19.234Z,97738.30
2023-01-17T17:54:50.348Z,97737.61
2023-01-17T17:57:21.016Z,97743.42
2023-01-17T17:59:51.684Z,97745.44
2023-01-17T18:02:22.354Z,97737.73
2023-01-17T18:04:53.234Z,97738.01
2023-01-17T18:07:24.108Z,97736.82
2023-01-17T18:09:54.794Z,97742.36
2023-01-17T18:12:25.464Z,97750.94
2023-01-17T18:14:56.061Z,97750.87
2023-01-17T18:17:26.971Z,97750.55
2023-01-17T18:19:57.583Z,97750.60
2023-01-17T18:22:28.242Z,97746.14
2023-01-17T18:24:59.024Z,97748.45
2023-01-17T18:27:29.688Z,97745.69
2023-01-17T18:30:00.578Z,97749.75
2023-01-17T18:32:31.363Z,97747.52
2023-01-17T18:35:04.038Z,97749.98
2023-01-17T18:37:34.788Z,97748.34
2023-01-17T18:40:07.140Z,97749.75
2023-01-17T18:42:39.026Z,97755.79
2023-01-17T18:45:11.879Z,97759.34
2023-01-17T18:47:42.621Z,97753.98
2023-01-17T18:50:13.970Z,97764.31
2023-01-17T18:52:44.913Z,97770.16
2023-01-17T18:55:15.792Z,97769.07
2023-01-17T18:57:47.175Z,97767.44
2023-01-17T19:00:20.026Z,97766.55
2023-01-17T19:02:51.891Z,97768.33
2023-01-17T19:05:24.682Z,97769.86
2023-01-17T19:07:55.917Z,97772.67
2023-01-17T19:10:27.622Z,97774.14
2023-01-17T19:12:58.919Z,97773.10
2023-01-17T19:15:32.860Z,97770.29
2023-01-17T19:18:08.627Z,97767.50
2023-01-17T19:20:39.590Z,97766.64
2023-01-17T19:23:10.342Z,97765.55
2023-01-17T19:25:41.150Z,97774.20
2023-01-17T19:28:11.841Z,97782.39
2023-01-17T19:30:42.570Z,97787.67
2023-01-17T19:33:13.246Z,97787.13
2023-01-17T19:35:44.138Z,97789.16
2023-01-17T19:38:15.397Z,97773.95
2023-01-17T19:40:46.584Z,97785.48
2023-01-17T19:43:17.797Z,97784.38
2023-01-17T19:45:58.543Z,97787.70
2023-01-17T19:48:30.076Z,97793.98
2023-01-17T19:51:06.722Z,97790.54
2023-01-17T19:53:41.703Z,97793.14
2023-01-17T19:56:15.906Z,97794.51
2023-01-17T19:58:48.079Z,97792.98
2023-01-17T20:01:20.464Z,97795.83
2023-01-17T20:03:51.479Z,97801.65
2023-01-17T20:06:24.256Z,97808.61
2023-01-17T20:08:58.665Z,97805.05
2023-01-17T20:11:33.764Z,97802.96
2023-01-17T20:14:05.562Z,97812.39
2023-01-17T20:16:38.051Z,97821.91
2023-01-17T20:19:08.803Z,97826.14
2023-01-17T20:21:39.671Z,97833.13
2023-01-17T20:24:14.262Z,97836.52
2023-01-17T20:26:44.913Z,97837.07
2023-01-17T20:29:17.918Z,97842.62
2023-01-17T20:31:52.351Z,97844.95
2023-01-17T20:34:25.835Z,97846.38
2023-01-17T20:36:59.374Z,97846.62
2023-01-17T20:39:30.618Z,97851.14
2023-01-17T20:42:01.300Z,97849.92
2023-01-17T20:44:34.387Z,97849.71
2023-01-17T20:47:05.094Z,97850.17
2023-01-17T20:49:35.762Z,97854.36
2023-01-17T20:52:07.044Z,97854.78
2023-01-17T20:54:37.663Z,97858.61
2023-01-17T20:57:08.477Z,97855.33
2023-01-17T20:59:39.231Z,97857.11
2023-01-17T21:02:10.988Z,97852.41
2023-01-17T21:04:41.948Z,97849.34
2023-01-17T21:07:12.686Z,97852.70
2023-01-17T21:09:43.882Z,97854.72
2023-01-17T21:12:15.999Z,97853.14
2023-01-17T21:14:46.722Z,97849.75
2023-01-17T21:17:17.493Z,97844.79
2023-01-17T21:19:48.155Z,97844.39
2023-01-17T21:22:18.838Z,97844.35
2023-01-17T21:24:49.553Z,97846.02
2023-01-17T21:27:21.633Z,97851.66
2023-01-17T21:29:53.630Z,97851.93
2023-01-17T21:32:24.795Z,97848.01
2023-01-17T21:34:55.619Z,97851.20
2023-01-17T21:37:26.239Z,97848.60
2023-01-17T21:39:56.961Z,97843.77
2023-01-17T21:42:27.738Z,97841.06
2023-01-17T21:44:58.528Z,97838.57
2023-01-17T21:47:29.195Z,97840.52
2023-01-17T21:49:59.950Z,97843.77
2023-01-17T21:52:31.651Z,97843.20
2023-01-17T21:55:20.216Z,97850.02
2023-01-17T21:58:08.616Z,97849.61
2023-01-17T22:00:43.019Z,97841.16
2023-01-17T22:03:13.904Z,97832.16
2023-01-17T22:05:44.498Z,97832.34
2023-01-17T22:08:15.567Z,97828.79
2023-01-17T22:10:47.080Z,97819.98
2023-01-17T22:13:19.718Z,97820.91
2023-01-17T22:16:00.582Z,97817.22
2023-01-17T22:18:32.493Z,97814.00
2023-01-17T22:21:07.397Z,97808.39
2023-01-17T22:23:39.561Z,97801.45
2023-01-17T22:26:11.835Z,97801.27
2023-01-17T22:28:43.662Z,97804.20
2023-01-17T22:31:16.425Z,97808.71
2023-01-17T22:33:48.980Z,97805.30
2023-01-17T22:36:20.194Z,97801.75
2023-01-17T22:38:51.066Z,97797.23
2023-01-17T22:41:23.434Z,97795.93
2023-01-17T22:43:57.681Z,97792.05
2023-01-17T22:46:31.845Z,97786.45
2023-01-17T22:49:02.848Z,97789.75
2023-01-17T22:51:33.636Z,97788.05
2023-01-17T22:54:04.264Z,97785.08
2023-01-17T22:56:36.012Z,97781.35
2023-01-17T22:59:11.414Z,97780.20
2023-01-17T23:01:42.492Z,97773.08
2023-01-17T23:04:15.972Z,97768.55
2023-01-17T23:06:46.786Z,97767.17
2023-01-17T23:09:18.300Z,97763.50
2023-01-17T23:11:52.693Z,97765.81
2023-01-17T23:14:28.151Z,97760.73
2023-01-17T23:17:19.068Z,97755.34
2023-01-17T23:19:51.387Z,97749.05
2023-01-17T23:22:23.678Z,97739.48
2023-01-17T23:24:56.173Z,97730.37
2023-01-17T23:27:46.766Z,97725.65
2023-01-17T23:30:19.073Z,97729.98
2023-01-17T23:32:51.316Z,97738.11
2023-01-17T23:35:24.019Z,97737.56
2023-01-17T23:38:13.272Z,97742.91
2023-01-17T23:41:04.430Z,97739.38
2023-01-17T23:43:36.325Z,97743.48
2023-01-17T23:46:12.044Z,97740.71
2023-01-17T23:48:42.815Z,97742.16
2023-01-17T23:51:13.549Z,97744.44
2023-01-17T23:53:44.274Z,97746.02
2023-01-17T23:56:18.215Z,97740.98
2023-01-17T23:58:49.236Z,97741.48
